Time;durP1;ratioP1;P1;durP2;ratioP2;P2;SDS_P1;SDS_P2;PMS_P1;PMS_P2;Temp;Humidity;BMP_temperature;BMP_pressure;BME280_temperature;BME280_humidity;BME280_pressure;Samples;Min_cycle;Max_cycle;Signal;HPM_P1;HPM_P2
2023/03/20 00:00:17;;;;;;;;;;;7.50;99.90;;;;;;5003106;28;91945;-73
2023/03/20 00:02:43;;;;;;;;;;;7.60;99.90;;;;;;5058538;28;19920;-74
2023/03/20 00:05:17;;;;;;;;;;;7.60;99.90;;;;;;4993163;28;207888;-73
2023/03/20 00:07:44;;;;;;;;;;;7.60;99.90;;;;;;5054852;28;20309;-74
2023/03/20 00:10:10;;;;;;;;;;;7.60;99.90;;;;;;5008833;28;209350;-73
2023/03/20 00:12:36;;;;;;;;;;;7.60;99.90;;;;;;5043869;28;20298;-74
2023/03/20 00:15:03;;;;;;;;;;;7.60;99.90;;;;;;4980421;28;208652;-73
2023/03/20 00:17:29;;;;;;;;;;;7.60;99.90;;;;;;5055460;28;20408;-74
2023/03/20 00:19:55;;;;;;;;;;;7.60;99.90;;;;;;5009333;28;211035;-73
2023/03/20 00:22:21;;;;;;;;;;;7.60;99.90;;;;;;5056314;28;19929;-73
2023/03/20 00:24:47;;;;;;;;;;;7.60;99.90;;;;;;5021230;28;211548;-73
2023/03/20 00:27:14;;;;;;;;;;;7.60;99.90;;;;;;5060582;28;20393;-72
2023/03/20 00:29:41;;;;;;;;;;;7.60;99.90;;;;;;5007843;28;228065;-73
2023/03/20 00:32:12;;;;;;;;;;;7.70;99.90;;;;;;5069460;28;19925;-73
2023/03/20 00:34:38;;;;;;;;;;;7.70;99.90;;;;;;5009875;28;213858;-73
2023/03/20 00:37:05;;;;;;;;;;;7.70;99.90;;;;;;5062529;28;20462;-73
2023/03/20 00:39:31;;;;;;;;;;;7.70;99.90;;;;;;5007554;28;225774;-74
2023/03/20 00:42:01;;;;;;;;;;;7.70;99.90;;;;;;5061951;28;19948;-73
2023/03/20 00:44:32;;;;;;;;;;;7.70;99.90;;;;;;5021842;28;232311;-73
2023/03/20 00:46:59;;;;;;;;;;;7.70;99.90;;;;;;5052943;28;19921;-74
2023/03/20 00:49:26;;;;;;;;;;;7.70;99.90;;;;;;5005624;28;230265;-74
2023/03/20 00:51:53;;;;;;;;;;;7.70;99.90;;;;;;5058590;28;19931;-74
2023/03/20 00:54:22;;;;;;;;;;;7.70;99.90;;;;;;4997953;28;211658;-73
2023/03/20 00:56:54;;;;;;;;;;;7.70;99.90;;;;;;5050334;28;19936;-73
2023/03/20 00:59:23;;;;;;;;;;;7.70;99.90;;;;;;5016779;28;209380;-73
2023/03/20 01:01:49;;;;;;;;;;;7.80;99.90;;;;;;5048704;28;19929;-73
2023/03/20 01:04:16;;;;;;;;;;;7.80;99.90;;;;;;4986814;28;213606;-74
2023/03/20 01:06:43;;;;;;;;;;;7.70;99.90;;;;;;5033308;28;19928;-73
2023/03/20 01:09:09;;;;;;;;;;;7.70;99.90;;;;;;5013669;28;208505;-73
2023/03/20 01:11:37;;;;;;;;;;;7.70;99.90;;;;;;5076428;28;19928;-73
2023/03/20 01:14:03;;;;;;;;;;;7.80;99.90;;;;;;5015927;28;208648;-73
2023/03/20 01:16:29;;;;;;;;;;;7.80;99.90;;;;;;5075289;28;19929;-72
2023/03/20 01:18:57;;;;;;;;;;;7.80;99.90;;;;;;5027009;28;206471;-73
2023/03/20 01:21:24;;;;;;;;;;;7.80;99.90;;;;;;5066205;28;19925;-73
2023/03/20 01:23:50;;;;;;;;;;;7.70;99.90;;;;;;5021620;28;209263;-73
2023/03/20 01:26:20;;;;;;;;;;;7.80;99.90;;;;;;5048930;28;20005;-74
2023/03/20 01:28:46;;;;;;;;;;;7.80;99.90;;;;;;5026693;28;208203;-72
2023/03/20 01:31:13;;;;;;;;;;;7.80;99.90;;;;;;5057367;28;20308;-74
2023/03/20 01:33:39;;;;;;;;;;;7.80;99.90;;;;;;5053750;28;208359;-74
2023/03/20 01:36:05;;;;;;;;;;;7.80;99.90;;;;;;5056801;28;206037;-73
2023/03/20 01:38:31;;;;;;;;;;;7.80;99.90;;;;;;5076362;28;19924;-73
2023/03/20 01:40:59;;;;;;;;;;;7.80;99.90;;;;;;5018709;28;209608;-73
2023/03/20 01:43:26;;;;;;;;;;;7.80;99.90;;;;;;5065239;28;19924;-74
2023/03/20 01:45:55;;;;;;;;;;;7.80;99.90;;;;;;5036031;28;224951;-73
2023/03/20 01:48:23;;;;;;;;;;;7.80;99.90;;;;;;5060390;28;19924;-73
2023/03/20 01:50:49;;;;;;;;;;;7.80;99.90;;;;;;4994148;28;189020;-73
2023/03/20 01:53:21;;;;;;;;;;;7.80;99.90;;;;;;5062173;28;19924;-74
2023/03/20 01:55:50;;;;;;;;;;;7.80;99.90;;;;;;5015835;28;209565;-74
2023/03/20 01:58:18;;;;;;;;;;;7.80;99.90;;;;;;5076072;28;19928;-73
2023/03/20 02:00:47;;;;;;;;;;;7.80;99.90;;;;;;4956173;28;1605400;-73
2023/03/20 02:03:14;;;;;;;;;;;7.80;99.90;;;;;;5063237;28;20393;-73
2023/03/20 02:05:41;;;;;;;;;;;7.80;99.90;;;;;;4997635;28;210124;-73
2023/03/20 02:08:20;;;;;;;;;;;7.80;99.90;;;;;;5075248;28;19943;-72
2023/03/20 02:10:49;;;;;;;;;;;7.80;99.90;;;;;;5007958;28;209710;-74
2023/03/20 02:13:15;;;;;;;;;;;7.80;99.90;;;;;;5076734;28;19926;-74
2023/03/20 02:16:00;;;;;;;;;;;7.80;99.90;;;;;;4996861;28;248705;-72
2023/03/20 02:18:26;;;;;;;;;;;7.80;99.90;;;;;;5054221;28;19932;-74
2023/03/20 02:21:07;;;;;;;;;;;7.80;99.90;;;;;;4970382;28;1307235;-73
2023/03/20 02:23:47;;;;;;;;;;;7.70;99.90;;;;;;5073657;28;19925;-73
2023/03/20 02:26:35;;;;;;;;;;;7.70;99.90;;;;;;4979495;28;156718;-74
2023/03/20 02:29:11;;;;;;;;;;;7.70;99.90;;;;;;5005757;28;206614;-73
2023/03/20 02:31:43;;;;;;;;;;;7.70;99.90;;;;;;5076155;28;20660;-73
2023/03/20 02:34:11;;;;;;;;;;;7.70;99.90;;;;;;5011344;28;211383;-73
2023/03/20 02:36:52;;;;;;;;;;;7.80;99.90;;;;;;5064253;28;19921;-73
2023/03/20 02:39:49;;;;;;;;;;;7.70;99.90;;;;;;5007874;28;206804;-72
2023/03/20 02:42:24;;;;;;;;;;;7.70;99.90;;;;;;5054428;28;20312;-72
2023/03/20 02:45:09;;;;;;;;;;;7.70;99.90;;;;;;5020294;28;210081;-72
2023/03/20 02:47:38;;;;;;;;;;;7.80;99.90;;;;;;5067618;28;19924;-73
2023/03/20 02:50:11;;;;;;;;;;;7.70;99.90;;;;;;5008904;28;209559;-73
2023/03/20 02:52:45;;;;;;;;;;;7.80;99.90;;;;;;5058330;28;20397;-74
2023/03/20 02:55:23;;;;;;;;;;;7.70;99.90;;;;;;5013152;28;216095;-71
2023/03/20 02:58:08;;;;;;;;;;;7.70;99.90;;;;;;5096255;28;20539;-73
2023/03/20 03:00:38;;;;;;;;;;;7.70;99.90;;;;;;5041694;28;210137;-72
2023/03/20 03:03:19;;;;;;;;;;;7.80;99.90;;;;;;5079732;28;20325;-73
2023/03/20 03:05:52;;;;;;;;;;;7.70;99.90;;;;;;4978900;28;228663;-72
2023/03/20 03:08:23;;;;;;;;;;;7.70;99.90;;;;;;5060145;28;20154;-73
2023/03/20 03:10:51;;;;;;;;;;;7.80;99.90;;;;;;5000533;28;209277;-72
2023/03/20 03:13:20;;;;;;;;;;;7.80;99.90;;;;;;5061945;28;20504;-72
2023/03/20 03:15:49;;;;;;;;;;;7.80;99.90;;;;;;4979790;28;208374;-73
2023/03/20 03:18:18;;;;;;;;;;;7.80;99.90;;;;;;5084733;28;20404;-73
2023/03/20 03:20:45;;;;;;;;;;;7.70;99.90;;;;;;4998292;28;180141;-73
2023/03/20 03:23:31;;;;;;;;;;;7.70;99.90;;;;;;5057452;28;19968;-72
2023/03/20 03:25:59;;;;;;;;;;;7.70;99.90;;;;;;5002373;28;209758;-72
2023/03/20 03:28:36;;;;;;;;;;;7.70;99.90;;;;;;5042144;28;19920;-73
2023/03/20 03:31:17;;;;;;;;;;;7.80;99.90;;;;;;5078779;27;206889;-72
2023/03/20 03:33:45;;;;;;;;;;;7.80;99.90;;;;;;5008773;28;206850;-71
2023/03/20 03:36:11;;;;;;;;;;;7.80;99.90;;;;;;5055952;28;19925;-73
2023/03/20 03:38:56;;;;;;;;;;;7.80;99.90;;;;;;5044660;28;253146;-72
2023/03/20 03:41:22;;;;;;;;;;;7.80;99.90;;;;;;5012396;28;19999;-73
2023/03/20 03:43:56;;;;;;;;;;;7.80;99.90;;;;;;5008916;28;241922;-72
2023/03/20 03:46:55;;;;;;;;;;;7.80;99.90;;;;;;5087723;28;19924;-72
2023/03/20 03:49:23;;;;;;;;;;;7.80;99.90;;;;;;5012832;28;225776;-73
2023/03/20 03:51:52;;;;;;;;;;;7.80;99.90;;;;;;5085659;28;19928;-72
2023/03/20 03:54:36;;;;;;;;;;;7.80;99.90;;;;;;5026656;28;208413;-73
2023/03/20 03:57:04;;;;;;;;;;;7.80;99.90;;;;;;5079717;28;19943;-72
2023/03/20 03:59:41;;;;;;;;;;;7.80;99.90;;;;;;5035776;28;206662;-72
2023/03/20 04:02:08;;;;;;;;;;;7.80;99.90;;;;;;5074718;28;19925;-73
2023/03/20 04:04:41;;;;;;;;;;;7.80;99.90;;;;;;5017296;28;168796;-72
2023/03/20 04:07:06;;;;;;;;;;;7.80;99.90;;;;;;5083138;28;19920;-72
2023/03/20 04:09:32;;;;;;;;;;;7.80;99.90;;;;;;5020807;28;206138;-72
2023/03/20 04:11:58;;;;;;;;;;;7.80;99.90;;;;;;5088156;28;19934;-72
2023/03/20 04:14:24;;;;;;;;;;;7.80;99.90;;;;;;5021352;28;213861;-73
2023/03/20 04:16:50;;;;;;;;;;;7.80;99.90;;;;;;5086356;28;19952;-72
2023/03/20 04:19:16;;;;;;;;;;;7.80;99.90;;;;;;5027159;28;206759;-73
2023/03/20 04:21:42;;;;;;;;;;;7.80;99.90;;;;;;5073963;28;19934;-72
2023/03/20 04:24:08;;;;;;;;;;;7.80;99.90;;;;;;5032915;28;207070;-72
2023/03/20 04:26:34;;;;;;;;;;;7.80;99.90;;;;;;5077313;28;19924;-73
2023/03/20 04:29:00;;;;;;;;;;;7.80;99.90;;;;;;5030265;28;207347;-73
2023/03/20 04:31:31;;;;;;;;;;;7.80;99.90;;;;;;5079819;28;20384;-72
2023/03/20 04:33:57;;;;;;;;;;;7.80;99.90;;;;;;5018199;28;224345;-71
2023/03/20 04:36:23;;;;;;;;;;;7.80;99.90;;;;;;5091786;28;19920;-72
2023/03/20 04:38:49;;;;;;;;;;;7.80;99.90;;;;;;5022588;28;207263;-72
2023/03/20 04:41:15;;;;;;;;;;;7.80;99.90;;;;;;5085566;28;19927;-73
2023/03/20 04:43:44;;;;;;;;;;;7.80;99.90;;;;;;5015565;28;234439;-72
2023/03/20 04:46:10;;;;;;;;;;;7.80;99.90;;;;;;5077656;28;19928;-73
2023/03/20 04:48:36;;;;;;;;;;;7.80;99.90;;;;;;5049760;28;208010;-72
2023/03/20 04:51:02;;;;;;;;;;;7.80;99.90;;;;;;5018601;28;225040;-73
2023/03/20 04:53:28;;;;;;;;;;;7.80;99.90;;;;;;5066760;28;19968;-72
2023/03/20 04:55:54;;;;;;;;;;;7.80;99.90;;;;;;5009676;28;204955;-73
2023/03/20 04:58:19;;;;;;;;;;;7.80;99.90;;;;;;5064050;28;19959;-73
2023/03/20 05:00:45;;;;;;;;;;;7.80;99.90;;;;;;5003849;28;222778;-73
2023/03/20 05:03:11;;;;;;;;;;;7.80;99.90;;;;;;5066973;28;19924;-72
2023/03/20 05:05:37;;;;;;;;;;;7.80;99.90;;;;;;4975347;28;210178;-72
2023/03/20 05:08:04;;;;;;;;;;;7.70;99.90;;;;;;5064095;28;20556;-73
2023/03/20 05:10:30;;;;;;;;;;;7.80;99.90;;;;;;5006444;28;208139;-73
2023/03/20 05:12:56;;;;;;;;;;;7.70;99.90;;;;;;5062283;28;19928;-73
2023/03/20 05:15:25;;;;;;;;;;;7.70;99.90;;;;;;4995555;28;219201;-73
2023/03/20 05:17:51;;;;;;;;;;;7.70;99.90;;;;;;5063129;28;19924;-73
2023/03/20 05:20:17;;;;;;;;;;;7.70;99.90;;;;;;5018262;28;129841;-72
2023/03/20 05:22:43;;;;;;;;;;;7.70;99.90;;;;;;5068721;28;19925;-71
2023/03/20 05:25:09;;;;;;;;;;;7.70;99.90;;;;;;5022265;28;208512;-72
2023/03/20 05:27:35;;;;;;;;;;;7.80;99.90;;;;;;5066289;28;20352;-72
2023/03/20 05:30:01;;;;;;;;;;;7.70;99.90;;;;;;5006027;28;252221;-72
2023/03/20 05:32:27;;;;;;;;;;;7.70;99.90;;;;;;5062493;28;20476;-73
2023/03/20 05:34:53;;;;;;;;;;;7.70;99.90;;;;;;5000401;28;239411;-73
2023/03/20 05:37:18;;;;;;;;;;;7.70;99.90;;;;;;5065525;28;20405;-73
2023/03/20 05:39:45;;;;;;;;;;;7.70;99.90;;;;;;5009326;28;209144;-73
2023/03/20 05:42:11;;;;;;;;;;;7.70;99.90;;;;;;5071852;28;19928;-72
2023/03/20 05:44:36;;;;;;;;;;;7.70;99.90;;;;;;5008700;28;213517;-72
2023/03/20 05:47:02;;;;;;;;;;;7.70;99.90;;;;;;5054536;28;20377;-72
2023/03/20 05:49:28;;;;;;;;;;;7.70;99.90;;;;;;5008759;28;209400;-72
2023/03/20 05:51:54;;;;;;;;;;;7.70;99.90;;;;;;5063255;28;19940;-73
2023/03/20 05:54:20;;;;;;;;;;;7.70;99.90;;;;;;5013880;28;206473;-72
2023/03/20 05:56:46;;;;;;;;;;;7.70;99.90;;;;;;5062304;28;19921;-72
2023/03/20 05:59:12;;;;;;;;;;;7.70;99.90;;;;;;5012946;28;206268;-75
2023/03/20 06:01:38;;;;;;;;;;;7.70;99.90;;;;;;5070692;28;19929;-74
2023/03/20 06:04:04;;;;;;;;;;;7.70;99.90;;;;;;5009669;28;225620;-74
2023/03/20 06:06:30;;;;;;;;;;;7.70;99.90;;;;;;5054013;28;20450;-72
2023/03/20 06:08:56;;;;;;;;;;;7.70;99.90;;;;;;4994883;28;207921;-72
2023/03/20 06:11:21;;;;;;;;;;;7.70;99.90;;;;;;5071317;28;19921;-72
2023/03/20 06:13:48;;;;;;;;;;;7.70;99.90;;;;;;5007717;28;208044;-73
2023/03/20 06:16:14;;;;;;;;;;;7.80;99.90;;;;;;5057830;28;19969;-71
2023/03/20 06:18:40;;;;;;;;;;;7.80;99.90;;;;;;5026437;28;209857;-69
2023/03/20 06:21:06;;;;;;;;;;;7.80;99.90;;;;;;5044799;28;19927;-73
2023/03/20 06:23:32;;;;;;;;;;;7.80;99.90;;;;;;5062263;28;19928;-72
2023/03/20 06:25:58;;;;;;;;;;;7.80;99.90;;;;;;5008692;28;207334;-73
2023/03/20 06:28:24;;;;;;;;;;;7.90;99.90;;;;;;5061196;28;19956;-73
2023/03/20 06:30:52;;;;;;;;;;;7.90;99.90;;;;;;4959172;28;1584038;-73
2023/03/20 06:33:20;;;;;;;;;;;7.90;99.90;;;;;;5059479;28;19929;-72
2023/03/20 06:35:47;;;;;;;;;;;7.90;99.90;;;;;;5027840;28;211652;-72
2023/03/20 06:38:13;;;;;;;;;;;7.90;99.90;;;;;;5062479;28;19928;-72
2023/03/20 06:40:40;;;;;;;;;;;7.90;99.90;;;;;;4990622;28;219268;-73
2023/03/20 06:43:06;;;;;;;;;;;7.90;99.90;;;;;;5060885;28;19947;-73
2023/03/20 06:45:32;;;;;;;;;;;7.90;99.90;;;;;;5012843;28;207433;-72
2023/03/20 06:47:58;;;;;;;;;;;8.00;99.90;;;;;;5057815;28;19938;-72
2023/03/20 06:50:24;;;;;;;;;;;8.00;99.90;;;;;;5009333;28;205913;-73
2023/03/20 06:52:51;;;;;;;;;;;8.00;99.90;;;;;;5060827;28;19987;-73
2023/03/20 06:55:17;;;;;;;;;;;8.10;99.90;;;;;;4995772;28;200474;-72
2023/03/20 06:57:43;;;;;;;;;;;8.10;99.90;;;;;;5067016;28;19924;-71
2023/03/20 07:00:09;;;;;;;;;;;8.10;99.90;;;;;;5021577;28;213967;-73
2023/03/20 07:02:35;;;;;;;;;;;8.10;99.90;;;;;;5060083;28;19932;-73
2023/03/20 07:05:02;;;;;;;;;;;8.10;99.90;;;;;;4969673;28;210701;-74
2023/03/20 07:07:28;;;;;;;;;;;8.10;99.90;;;;;;5042364;28;19927;-72
2023/03/20 07:09:54;;;;;;;;;;;8.10;99.90;;;;;;4996919;28;216627;-74
2023/03/20 07:12:20;;;;;;;;;;;8.10;99.90;;;;;;5041803;28;19964;-74
2023/03/20 07:14:46;;;;;;;;;;;8.10;99.90;;;;;;4996833;28;204602;-73
2023/03/20 07:17:12;;;;;;;;;;;8.10;99.90;;;;;;5060966;28;19924;-73
2023/03/20 07:19:38;;;;;;;;;;;8.20;99.90;;;;;;5010240;28;213736;-74
2023/03/20 07:22:05;;;;;;;;;;;8.20;99.90;;;;;;5056337;28;20182;-74
2023/03/20 07:24:31;;;;;;;;;;;8.20;99.90;;;;;;5016029;28;244648;-74
2023/03/20 07:26:57;;;;;;;;;;;8.20;99.90;;;;;;5073942;28;19921;-74
2023/03/20 07:29:23;;;;;;;;;;;8.30;99.90;;;;;;4989013;28;207515;-75
2023/03/20 07:31:49;;;;;;;;;;;8.30;99.90;;;;;;5032943;28;20423;-74
2023/03/20 07:34:15;;;;;;;;;;;8.30;99.90;;;;;;5005925;28;206706;-74
2023/03/20 07:36:41;;;;;;;;;;;8.40;99.90;;;;;;5071072;28;19920;-74
2023/03/20 07:39:07;;;;;;;;;;;8.40;99.90;;;;;;5005603;28;207008;-74
2023/03/20 07:41:33;;;;;;;;;;;8.40;99.90;;;;;;5034277;28;19928;-74
2023/03/20 07:43:59;;;;;;;;;;;8.40;99.90;;;;;;5003376;28;198141;-74
2023/03/20 07:46:25;;;;;;;;;;;8.50;99.90;;;;;;5060064;28;20404;-74
2023/03/20 07:48:55;;;;;;;;;;;8.50;99.90;;;;;;4992587;28;238745;-75
2023/03/20 07:51:21;;;;;;;;;;;8.60;99.90;;;;;;5065486;28;19947;-74
2023/03/20 07:53:47;;;;;;;;;;;8.70;99.90;;;;;;5009405;28;206772;-73
2023/03/20 07:56:13;;;;;;;;;;;8.70;99.90;;;;;;5073110;28;19927;-73
2023/03/20 07:58:39;;;;;;;;;;;8.70;99.90;;;;;;5047032;28;211371;-72
2023/03/20 08:01:05;;;;;;;;;;;8.70;99.90;;;;;;5055660;28;19935;-74
2023/03/20 08:03:31;;;;;;;;;;;8.70;99.90;;;;;;5066529;28;20022;-74
2023/03/20 08:05:57;;;;;;;;;;;8.70;99.90;;;;;;4988928;28;212225;-72
2023/03/20 08:08:22;;;;;;;;;;;8.70;99.90;;;;;;5064837;28;19924;-73
2023/03/20 08:10:48;;;;;;;;;;;8.80;99.90;;;;;;5020231;28;205746;-74
2023/03/20 08:13:14;;;;;;;;;;;8.80;99.90;;;;;;5059178;28;19928;-75
2023/03/20 08:15:40;;;;;;;;;;;8.90;99.90;;;;;;5017760;28;206237;-74
2023/03/20 08:18:06;;;;;;;;;;;9.00;99.90;;;;;;5085034;28;19920;-73
2023/03/20 08:20:32;;;;;;;;;;;9.00;99.90;;;;;;5018535;28;235125;-73
2023/03/20 08:22:58;;;;;;;;;;;9.00;99.90;;;;;;5066442;28;19925;-73
2023/03/20 08:25:24;;;;;;;;;;;9.10;99.90;;;;;;5008883;28;205503;-73
2023/03/20 08:27:50;;;;;;;;;;;9.30;99.90;;;;;;5050153;28;19932;-73
2023/03/20 08:30:16;;;;;;;;;;;9.30;99.90;;;;;;5019756;28;207007;-74
2023/03/20 08:32:41;;;;;;;;;;;9.40;99.90;;;;;;5070387;28;19932;-73
2023/03/20 08:35:07;;;;;;;;;;;9.40;99.90;;;;;;5008657;28;205013;-74
2023/03/20 08:37:34;;;;;;;;;;;9.60;99.90;;;;;;5038262;28;19935;-75
2023/03/20 08:40:00;;;;;;;;;;;9.80;99.90;;;;;;5008217;28;218947;-73
2023/03/20 08:42:26;;;;;;;;;;;9.90;99.90;;;;;;5066607;28;20399;-74
2023/03/20 08:44:52;;;;;;;;;;;9.80;99.90;;;;;;5012166;28;211163;-74
2023/03/20 08:47:18;;;;;;;;;;;9.70;99.90;;;;;;5064843;28;19931;-75
2023/03/20 08:49:44;;;;;;;;;;;9.80;99.90;;;;;;5021081;28;207597;-75
2023/03/20 08:52:10;;;;;;;;;;;9.70;99.90;;;;;;5069189;28;19925;-74
2023/03/20 08:54:36;;;;;;;;;;;9.70;99.90;;;;;;5008168;28;208059;-75
2023/03/20 08:57:02;;;;;;;;;;;9.60;99.90;;;;;;5060948;28;20014;-73
2023/03/20 08:59:28;;;;;;;;;;;9.70;99.90;;;;;;5003908;28;178818;-72
2023/03/20 09:01:54;;;;;;;;;;;9.80;99.90;;;;;;5058273;28;20376;-75
2023/03/20 09:04:20;;;;;;;;;;;9.70;99.90;;;;;;5000880;28;206522;-74
2023/03/20 09:06:46;;;;;;;;;;;9.80;99.90;;;;;;5048249;28;19927;-75
2023/03/20 09:09:14;;;;;;;;;;;10.00;99.90;;;;;;4999274;28;224074;-74
2023/03/20 09:11:40;;;;;;;;;;;10.10;99.90;;;;;;5047595;28;19920;-74
2023/03/20 09:14:06;;;;;;;;;;;10.30;99.90;;;;;;5012011;28;225768;-74
2023/03/20 09:16:32;;;;;;;;;;;10.30;99.90;;;;;;5059745;28;19921;-74
2023/03/20 09:18:58;;;;;;;;;;;10.20;99.90;;;;;;5007814;28;226951;-73
2023/03/20 09:21:24;;;;;;;;;;;10.40;99.90;;;;;;5058814;28;19930;-73
2023/03/20 09:23:50;;;;;;;;;;;10.60;99.90;;;;;;5007609;28;210526;-73
2023/03/20 09:26:16;;;;;;;;;;;10.80;99.90;;;;;;5072496;28;19930;-74
2023/03/20 09:28:42;;;;;;;;;;;10.80;99.90;;;;;;5019907;28;209012;-73
2023/03/20 09:31:08;;;;;;;;;;;10.90;99.90;;;;;;5057425;28;20407;-74
2023/03/20 09:33:33;;;;;;;;;;;11.00;99.90;;;;;;5064577;28;19924;-73
2023/03/20 09:36:00;;;;;;;;;;;10.90;99.90;;;;;;5018311;28;271172;-74
2023/03/20 09:38:25;;;;;;;;;;;10.90;99.90;;;;;;5065780;28;19943;-74
2023/03/20 09:40:56;;;;;;;;;;;10.80;99.90;;;;;;5007692;28;206811;-74
2023/03/20 09:43:36;;;;;;;;;;;10.80;99.90;;;;;;5063382;28;19924;-74
2023/03/20 09:46:12;;;;;;;;;;;10.80;99.90;;;;;;5015019;28;119144;-74
2023/03/20 09:48:41;;;;;;;;;;;10.80;99.90;;;;;;5048763;28;206667;-73
2023/03/20 09:51:26;;;;;;;;;;;10.80;99.90;;;;;;5021828;28;19921;-74
2023/03/20 09:54:12;;;;;;;;;;;10.90;99.90;;;;;;5013588;28;208109;-73
2023/03/20 09:56:38;;;;;;;;;;;10.90;99.90;;;;;;5060082;28;19956;-74
2023/03/20 09:59:05;;;;;;;;;;;10.80;99.90;;;;;;5014214;28;209029;-74
2023/03/20 10:01:39;;;;;;;;;;;10.90;99.90;;;;;;5070726;28;19928;-73
2023/03/20 10:04:08;;;;;;;;;;;10.80;99.90;;;;;;5014940;28;71257;-72
2023/03/20 10:06:34;;;;;;;;;;;10.70;99.90;;;;;;5055753;28;19932;-74
2023/03/20 10:09:01;;;;;;;;;;;10.80;99.90;;;;;;5004302;28;211195;-72
2023/03/20 10:11:26;;;;;;;;;;;10.70;99.90;;;;;;5074011;28;19939;-74
2023/03/20 10:14:11;;;;;;;;;;;10.70;99.90;;;;;;5008551;28;207727;-74
2023/03/20 10:16:40;;;;;;;;;;;10.90;99.90;;;;;;5073644;28;19921;-74
2023/03/20 10:19:25;;;;;;;;;;;11.20;99.90;;;;;;5005384;28;239041;-73
2023/03/20 10:21:58;;;;;;;;;;;11.10;99.90;;;;;;5054441;28;19921;-74
2023/03/20 10:24:27;;;;;;;;;;;11.10;99.90;;;;;;5023777;28;207174;-73
2023/03/20 10:26:54;;;;;;;;;;;11.10;99.90;;;;;;5057738;28;19939;-73
2023/03/20 10:29:36;;;;;;;;;;;11.10;99.90;;;;;;5016938;28;229599;-74
2023/03/20 10:32:18;;;;;;;;;;;11.00;99.90;;;;;;5069800;28;19920;-73
2023/03/20 10:34:49;;;;;;;;;;;10.90;99.90;;;;;;5014274;28;206165;-73
2023/03/20 10:37:42;;;;;;;;;;;11.00;99.90;;;;;;5075507;28;19928;-73
2023/03/20 10:40:28;;;;;;;;;;;10.90;99.90;;;;;;4990517;28;205694;-74
2023/03/20 10:42:56;;;;;;;;;;;10.70;99.90;;;;;;5062980;28;19939;-74
2023/03/20 10:45:29;;;;;;;;;;;10.70;99.90;;;;;;5004533;28;228261;-74
2023/03/20 10:47:56;;;;;;;;;;;10.70;99.90;;;;;;5057579;28;20324;-74
2023/03/20 10:50:31;;;;;;;;;;;10.80;99.90;;;;;;4996265;28;207748;-75
2023/03/20 10:52:58;;;;;;;;;;;10.80;99.90;;;;;;5063057;28;19924;-75
2023/03/20 10:55:28;;;;;;;;;;;10.80;99.90;;;;;;5008535;28;207122;-74
2023/03/20 10:57:56;;;;;;;;;;;10.70;99.90;;;;;;5042754;28;19931;-73
2023/03/20 11:00:24;;;;;;;;;;;10.70;99.90;;;;;;5021605;28;209835;-73
2023/03/20 11:02:50;;;;;;;;;;;10.70;99.90;;;;;;5064216;28;19924;-73
2023/03/20 11:05:21;;;;;;;;;;;10.70;99.90;;;;;;4979856;28;207690;-74
2023/03/20 11:07:59;;;;;;;;;;;10.60;99.90;;;;;;5040954;28;21186;-74
2023/03/20 11:10:26;;;;;;;;;;;10.50;99.90;;;;;;5000283;28;209913;-75
2023/03/20 11:12:52;;;;;;;;;;;10.40;99.90;;;;;;5051085;28;19936;-74
2023/03/20 11:15:25;;;;;;;;;;;10.40;99.90;;;;;;5007809;28;217060;-74
2023/03/20 11:17:52;;;;;;;;;;;10.30;99.90;;;;;;5067800;28;19939;-74
2023/03/20 11:20:18;;;;;;;;;;;10.40;99.90;;;;;;5014799;28;206339;-74
2023/03/20 11:22:45;;;;;;;;;;;10.40;99.90;;;;;;5056444;28;19932;-74
2023/03/20 11:25:32;;;;;;;;;;;10.40;99.90;;;;;;5009542;28;211194;-74
2023/03/20 11:28:17;;;;;;;;;;;10.20;99.90;;;;;;5061791;28;19940;-75
2023/03/20 11:30:46;;;;;;;;;;;10.10;99.90;;;;;;5006936;28;210828;-74
2023/03/20 11:33:13;;;;;;;;;;;10.00;99.90;;;;;;5051729;28;20817;-73
2023/03/20 11:35:43;;;;;;;;;;;10.10;99.90;;;;;;4992447;28;205615;-73
2023/03/20 11:38:16;;;;;;;;;;;10.00;99.90;;;;;;5061790;28;19928;-73
2023/03/20 11:40:42;;;;;;;;;;;10.00;99.90;;;;;;5009253;28;219435;-74
2023/03/20 11:43:10;;;;;;;;;;;10.10;99.90;;;;;;5060178;28;19959;-73
2023/03/20 11:45:38;;;;;;;;;;;10.10;99.90;;;;;;5013428;28;210420;-74
2023/03/20 11:48:05;;;;;;;;;;;10.10;99.90;;;;;;5056934;28;19921;-74
2023/03/20 11:50:35;;;;;;;;;;;10.10;99.90;;;;;;5005110;28;210470;-74
2023/03/20 11:53:02;;;;;;;;;;;10.10;99.90;;;;;;5082635;28;19924;-75
2023/03/20 11:55:29;;;;;;;;;;;10.10;99.90;;;;;;5001351;28;208109;-74
2023/03/20 11:57:56;;;;;;;;;;;10.00;99.90;;;;;;5067036;28;20400;-74
2023/03/20 12:00:24;;;;;;;;;;;10.00;99.90;;;;;;5024101;28;206820;-75
2023/03/20 12:02:50;;;;;;;;;;;9.90;99.90;;;;;;5076459;28;20330;-74
2023/03/20 12:05:18;;;;;;;;;;;10.00;99.90;;;;;;4987585;28;216880;-74
2023/03/20 12:07:47;;;;;;;;;;;10.00;99.90;;;;;;5058036;28;20255;-74
2023/03/20 12:10:13;;;;;;;;;;;10.00;99.90;;;;;;4988926;28;259203;-75
2023/03/20 12:12:42;;;;;;;;;;;10.00;99.90;;;;;;5059188;28;20320;-74
2023/03/20 12:15:11;;;;;;;;;;;10.10;99.90;;;;;;5004405;28;213393;-74
2023/03/20 12:17:49;;;;;;;;;;;10.00;99.90;;;;;;5047642;28;19928;-73
2023/03/20 12:20:21;;;;;;;;;;;10.00;99.90;;;;;;5012333;28;209143;-74
2023/03/20 12:22:56;;;;;;;;;;;9.90;99.90;;;;;;5052104;28;19939;-74
2023/03/20 12:25:52;;;;;;;;;;;9.80;99.90;;;;;;5012952;28;217505;-74
2023/03/20 12:28:36;;;;;;;;;;;9.90;99.90;;;;;;5027922;28;19957;-74
2023/03/20 12:31:18;;;;;;;;;;;10.00;99.90;;;;;;5010824;28;205266;-75
2023/03/20 12:33:50;;;;;;;;;;;10.00;99.90;;;;;;5012460;28;209797;-75
2023/03/20 12:36:18;;;;;;;;;;;9.90;99.90;;;;;;5063339;28;19940;-74
2023/03/20 12:38:44;;;;;;;;;;;9.80;99.90;;;;;;5013528;28;207924;-74
2023/03/20 12:41:13;;;;;;;;;;;9.80;99.90;;;;;;5065181;28;20403;-73
2023/03/20 12:43:46;;;;;;;;;;;9.80;99.90;;;;;;5035997;28;208871;-72
2023/03/20 12:46:31;;;;;;;;;;;9.70;99.90;;;;;;5023007;28;19943;-74
2023/03/20 12:49:10;;;;;;;;;;;9.70;99.90;;;;;;5012705;28;212468;-75
2023/03/20 12:51:55;;;;;;;;;;;9.80;99.90;;;;;;5075041;28;20336;-74
2023/03/20 12:54:30;;;;;;;;;;;9.80;99.90;;;;;;5026054;28;206185;-75
2023/03/20 12:57:11;;;;;;;;;;;9.70;99.90;;;;;;5059083;28;19935;-75
2023/03/20 13:00:09;;;;;;;;;;;9.70;99.90;;;;;;4963895;28;1376880;-74
2023/03/20 13:02:45;;;;;;;;;;;9.60;99.90;;;;;;5067143;28;20289;-75
2023/03/20 13:05:25;;;;;;;;;;;9.50;99.90;;;;;;4977908;28;268926;-74
2023/03/20 13:08:10;;;;;;;;;;;9.40;99.90;;;;;;5066579;28;19924;-74
2023/03/20 13:10:37;;;;;;;;;;;9.50;99.90;;;;;;5024346;28;206080;-74
2023/03/20 13:13:10;;;;;;;;;;;9.30;99.90;;;;;;5072366;28;19924;-74
2023/03/20 13:15:48;;;;;;;;;;;9.20;99.90;;;;;;5032629;28;204887;-74
2023/03/20 13:18:24;;;;;;;;;;;9.20;99.90;;;;;;5083998;28;19940;-74
2023/03/20 13:20:54;;;;;;;;;;;9.00;99.90;;;;;;5018218;28;233786;-75
2023/03/20 13:23:20;;;;;;;;;;;9.00;99.90;;;;;;5084129;28;19929;-73
2023/03/20 13:26:06;;;;;;;;;;;9.00;99.90;;;;;;5019061;28;204830;-74
2023/03/20 13:28:44;;;;;;;;;;;8.90;99.90;;;;;;5062794;28;19943;-74
2023/03/20 13:31:20;;;;;;;;;;;9.00;99.90;;;;;;4988916;28;19931;-74
2023/03/20 13:33:51;;;;;;;;;;;9.10;99.90;;;;;;5003385;28;204963;-73
2023/03/20 13:36:26;;;;;;;;;;;9.00;99.90;;;;;;5061717;28;19921;-76
2023/03/20 13:39:04;;;;;;;;;;;8.90;99.90;;;;;;5012356;28;209012;-75
2023/03/20 13:41:32;;;;;;;;;;;8.90;99.90;;;;;;5068908;28;19927;-74
2023/03/20 13:44:00;;;;;;;;;;;8.80;99.90;;;;;;5023979;28;214868;-74
2023/03/20 13:46:38;;;;;;;;;;;8.80;99.90;;;;;;5056407;28;19921;-73
2023/03/20 13:49:12;;;;;;;;;;;8.70;99.90;;;;;;5022508;28;206645;-73
2023/03/20 13:51:43;;;;;;;;;;;8.70;99.90;;;;;;5080970;28;19928;-73
2023/03/20 13:54:09;;;;;;;;;;;8.60;99.90;;;;;;5027059;28;208521;-73
2023/03/20 13:56:54;;;;;;;;;;;8.70;99.90;;;;;;5061041;28;19924;-73
2023/03/20 13:59:25;;;;;;;;;;;8.70;99.90;;;;;;5018937;28;208068;-73
2023/03/20 14:01:54;;;;;;;;;;;8.50;99.90;;;;;;5066500;28;19924;-74
2023/03/20 14:04:21;;;;;;;;;;;8.60;99.90;;;;;;4998342;28;219734;-72
2023/03/20 14:06:49;;;;;;;;;;;8.50;99.90;;;;;;5067086;28;19935;-71
2023/03/20 14:09:27;;;;;;;;;;;8.50;99.90;;;;;;5001801;28;207296;-73
2023/03/20 14:11:54;;;;;;;;;;;8.40;99.90;;;;;;5063379;28;19932;-72
2023/03/20 14:14:25;;;;;;;;;;;8.40;99.90;;;;;;5007477;28;214914;-71
2023/03/20 14:17:10;;;;;;;;;;;8.40;99.90;;;;;;5071567;28;20468;-71
2023/03/20 14:19:36;;;;;;;;;;;8.40;99.90;;;;;;5019955;28;210539;-71
2023/03/20 14:22:02;;;;;;;;;;;8.40;99.90;;;;;;5065319;28;19921;-71
2023/03/20 14:24:28;;;;;;;;;;;8.50;99.90;;;;;;5008329;28;157684;-72
2023/03/20 14:26:56;;;;;;;;;;;8.50;99.90;;;;;;5056052;28;20339;-72
2023/03/20 14:29:28;;;;;;;;;;;8.50;99.90;;;;;;5013797;28;211914;-72
2023/03/20 14:32:04;;;;;;;;;;;8.60;99.90;;;;;;5059929;28;19928;-72
2023/03/20 14:35:03;;;;;;;;;;;8.50;99.90;;;;;;5015783;28;209551;-72